Time;durP1;ratioP1;P1;durP2;ratioP2;P2;SDS_P1;SDS_P2;PMS_P1;PMS_P2;Temp;Humidity;BMP_temperature;BMP_pressure;BME280_temperature;BME280_humidity;BME280_pressure;Samples;Min_cycle;Max_cycle;Signal;HPM_P1;HPM_P2
2024/03/18 00:03:17;;;;;;;;;;;;;;;8.08;100.00;94916.09;10299070;28;19921;-75
2024/03/18 00:08:17;;;;;;;;;;;;;;;8.06;100.00;94911.00;10297396;28;19929;-75
2024/03/18 00:13:17;;;;;;;;;;;;;;;8.02;100.00;94913.41;10297422;28;19917;-76
2024/03/18 00:18:18;;;;;;;;;;;;;;;7.94;100.00;94908.50;10295975;28;19933;-76
2024/03/18 00:23:19;;;;;;;;;;;;;;;7.80;100.00;94896.56;10299043;28;19913;-77
2024/03/18 00:28:20;;;;;;;;;;;;;;;7.81;100.00;94890.16;10297931;28;19917;-76
2024/03/18 00:33:20;;;;;;;;;;;;;;;7.76;100.00;94892.75;10280788;28;19957;-76
2024/03/18 00:38:20;;;;;;;;;;;;;;;7.73;100.00;94888.75;10294411;28;19922;-76
2024/03/18 00:43:21;;;;;;;;;;;;;;;7.64;100.00;94892.91;10297039;28;20614;-77
2024/03/18 00:48:21;;;;;;;;;;;;;;;7.55;100.00;94884.53;10297755;28;19952;-76
2024/03/18 00:53:21;;;;;;;;;;;;;;;7.42;100.00;94882.22;10298190;28;19972;-76
2024/03/18 00:58:21;;;;;;;;;;;;;;;7.32;100.00;94885.59;10293380;28;20348;-75
2024/03/18 01:03:22;;;;;;;;;;;;;;;7.25;100.00;94880.41;10288034;28;20669;-75
2024/03/18 01:08:22;;;;;;;;;;;;;;;7.01;100.00;94869.97;10283517;28;19916;-76
2024/03/18 01:13:31;;;;;;;;;;;;;;;6.94;100.00;94877.34;10304561;28;19917;-76
2024/03/18 01:18:31;;;;;;;;;;;;;;;6.91;100.00;94875.19;10305068;28;19986;-76
2024/03/18 01:23:31;;;;;;;;;;;;;;;6.90;100.00;94878.09;10301651;28;20327;-76
2024/03/18 01:28:31;;;;;;;;;;;;;;;6.68;100.00;94870.84;10304772;28;19916;-77
2024/03/18 01:33:32;;;;;;;;;;;;;;;6.52;100.00;94872.47;10283812;28;19921;-76
2024/03/18 01:38:33;;;;;;;;;;;;;;;6.55;100.00;94866.66;10299063;28;19922;-77
2024/03/18 01:43:35;;;;;;;;;;;;;;;6.35;100.00;94855.66;10296419;28;19949;-74
2024/03/18 01:48:36;;;;;;;;;;;;;;;6.31;100.00;94856.13;10302712;28;19914;-76
2024/03/18 01:53:37;;;;;;;;;;;;;;;6.14;100.00;94860.69;10285181;28;20324;-74
2024/03/18 01:58:42;;;;;;;;;;;;;;;6.24;100.00;94852.84;10299028;28;19910;-75
2024/03/18 02:03:42;;;;;;;;;;;;;;;6.29;100.00;94855.59;10298850;28;20735;-75
2024/03/18 02:08:43;;;;;;;;;;;;;;;6.26;100.00;94845.38;10302122;28;19969;-76
2024/03/18 02:13:43;;;;;;;;;;;;;;;6.12;100.00;94849.44;10302184;28;19913;-75
2024/03/18 02:18:43;;;;;;;;;;;;;;;6.13;100.00;94837.72;10302879;28;19910;-75
2024/03/18 02:23:44;;;;;;;;;;;;;;;6.12;100.00;94836.09;10303129;28;20470;-75
2024/03/18 02:28:46;;;;;;;;;;;;;;;5.92;100.00;94837.34;10301696;28;19910;-77
2024/03/18 02:33:47;;;;;;;;;;;;;;;5.96;100.00;94835.81;10312496;28;20003;-77
2024/03/18 02:38:47;;;;;;;;;;;;;;;5.94;100.00;94835.22;10284598;28;19921;-77
2024/03/18 02:43:47;;;;;;;;;;;;;;;5.89;100.00;94839.66;10301795;28;19932;-76
2024/03/18 02:48:47;;;;;;;;;;;;;;;5.82;100.00;94837.19;10301652;28;19945;-76
2024/03/18 02:53:48;;;;;;;;;;;;;;;5.68;100.00;94835.84;10300573;28;19918;-76
2024/03/18 02:58:48;;;;;;;;;;;;;;;5.61;100.00;94830.66;10301254;28;19939;-75
2024/03/18 03:03:51;;;;;;;;;;;;;;;5.62;100.00;94838.44;10301075;28;20285;-75
2024/03/18 03:08:51;;;;;;;;;;;;;;;5.56;100.00;94838.56;10301446;28;20481;-76
2024/03/18 03:13:51;;;;;;;;;;;;;;;5.46;100.00;94829.34;10300119;28;20023;-77
2024/03/18 03:18:51;;;;;;;;;;;;;;;5.45;100.00;94833.03;10280870;28;20396;-77
2024/03/18 03:23:52;;;;;;;;;;;;;;;5.41;100.00;94829.22;10299109;28;19932;-77
2024/03/18 03:28:52;;;;;;;;;;;;;;;5.35;100.00;94821.41;10299615;28;19910;-76
2024/03/18 03:33:52;;;;;;;;;;;;;;;5.26;100.00;94819.13;10299227;28;19964;-76
2024/03/18 03:38:53;;;;;;;;;;;;;;;5.29;100.00;94821.28;10293045;28;20379;-77
2024/03/18 03:43:53;;;;;;;;;;;;;;;5.32;100.00;94822.69;10299497;28;19925;-76
2024/03/18 03:48:53;;;;;;;;;;;;;;;5.35;100.00;94824.88;10299612;28;19913;-76
2024/03/18 03:53:53;;;;;;;;;;;;;;;5.26;100.00;94816.44;10285111;28;19936;-75
2024/03/18 03:58:54;;;;;;;;;;;;;;;5.25;100.00;94814.81;10302619;28;20345;-75
2024/03/18 04:03:54;;;;;;;;;;;;;;;5.15;100.00;94814.63;10313079;28;20291;-76
2024/03/18 04:08:54;;;;;;;;;;;;;;;5.26;100.00;94813.78;10298713;28;19913;-76
2024/03/18 04:13:55;;;;;;;;;;;;;;;5.22;100.00;94812.63;10287805;28;19921;-76
2024/03/18 04:18:55;;;;;;;;;;;;;;;5.19;100.00;94818.44;10299113;28;19917;-76
2024/03/18 04:23:56;;;;;;;;;;;;;;;5.13;100.00;94809.53;10298578;28;20651;-76
2024/03/18 04:28:57;;;;;;;;;;;;;;;5.05;100.00;94811.75;10298426;28;19971;-75
2024/03/18 04:33:57;;;;;;;;;;;;;;;5.15;100.00;94811.97;10298921;28;19917;-75
2024/03/18 04:38:57;;;;;;;;;;;;;;;5.15;100.00;94801.31;10306474;28;19925;-76
2024/03/18 04:43:57;;;;;;;;;;;;;;;5.18;100.00;94814.16;10305988;28;19920;-75
2024/03/18 04:48:58;;;;;;;;;;;;;;;5.23;100.00;94813.44;10304753;28;19910;-77
2024/03/18 04:53:58;;;;;;;;;;;;;;;5.18;100.00;94824.81;10304131;28;20000;-77
2024/03/18 04:58:59;;;;;;;;;;;;;;;5.25;100.00;94833.47;10305748;28;20343;-78
2024/03/18 05:04:00;;;;;;;;;;;;;;;5.23;100.00;94835.56;10306559;28;19953;-76
2024/03/18 05:09:00;;;;;;;;;;;;;;;5.19;100.00;94844.25;10334112;28;20523;-76
2024/03/18 05:14:01;;;;;;;;;;;;;;;5.12;100.00;94842.56;10284741;28;19925;-76
2024/03/18 05:19:01;;;;;;;;;;;;;;;5.12;100.00;94845.22;10301746;28;19913;-74
2024/03/18 05:24:02;;;;;;;;;;;;;;;5.13;100.00;94846.84;10302254;28;19922;-76
2024/03/18 05:29:02;;;;;;;;;;;;;;;5.14;100.00;94853.78;10275780;28;19917;-77
2024/03/18 05:34:05;;;;;;;;;;;;;;;5.44;100.00;94847.44;10287143;28;19956;-77
2024/03/18 05:39:08;;;;;;;;;;;;;;;6.12;100.00;94844.88;10300334;28;20644;-76
2024/03/18 05:44:08;;;;;;;;;;;;;;;6.70;100.00;94841.22;10301069;28;20569;-76
2024/03/18 05:49:09;;;;;;;;;;;;;;;7.68;100.00;94835.97;10299941;28;19914;-76
2024/03/18 05:54:10;;;;;;;;;;;;;;;8.70;100.00;94829.06;10284373;28;20376;-77
2024/03/18 05:59:10;;;;;;;;;;;;;;;9.20;100.00;94816.97;10303029;28;19971;-75
2024/03/18 06:04:11;;;;;;;;;;;;;;;9.58;100.00;94814.94;10302834;28;20025;-76
2024/03/18 06:09:12;;;;;;;;;;;;;;;10.19;100.00;94801.91;10302425;28;19948;-76
2024/03/18 06:14:13;;;;;;;;;;;;;;;10.91;100.00;94801.81;10292138;28;20258;-76
2024/03/18 06:19:15;;;;;;;;;;;;;;;10.92;100.00;94796.16;10302279;28;19909;-75
2024/03/18 06:24:25;;;;;;;;;;;;;;;12.03;100.00;94785.38;10288519;28;20268;-75
2024/03/18 06:29:25;;;;;;;;;;;;;;;12.80;98.71;94785.53;10282704;28;19964;-78
2024/03/18 06:34:25;;;;;;;;;;;;;;;13.18;95.64;94786.75;10288919;28;20023;-77
2024/03/18 06:39:25;;;;;;;;;;;;;;;13.07;94.68;94791.44;10291121;28;20388;-76
2024/03/18 06:44:26;;;;;;;;;;;;;;;13.68;91.90;94789.91;10286216;28;19924;-76
2024/03/18 06:49:26;;;;;;;;;;;;;;;14.57;82.03;94782.88;10290387;28;20656;-78
2024/03/18 06:54:26;;;;;;;;;;;;;;;15.28;73.26;94779.16;10301943;28;19945;-77
2024/03/18 06:59:26;;;;;;;;;;;;;;;15.78;68.95;94776.50;10302045;28;20398;-78
2024/03/18 07:04:27;;;;;;;;;;;;;;;16.11;64.99;94765.44;10300182;28;19924;-77
2024/03/18 07:09:27;;;;;;;;;;;;;;;17.17;57.79;94762.25;10300124;28;19920;-77
2024/03/18 07:14:27;;;;;;;;;;;;;;;18.14;53.66;94749.63;10299388;28;19920;-77
2024/03/18 07:19:27;;;;;;;;;;;;;;;18.14;50.87;94752.34;10300545;28;20252;-77
2024/03/18 07:24:28;;;;;;;;;;;;;;;18.29;50.13;94742.88;10322598;28;19917;-77
2024/03/18 07:29:28;;;;;;;;;;;;;;;19.56;47.33;94743.44;10324262;28;19909;-76
2024/03/18 07:34:28;;;;;;;;;;;;;;;20.67;42.71;94727.63;10297205;28;20297;-74
2024/03/18 07:39:29;;;;;;;;;;;;;;;21.20;42.29;94722.38;10297393;28;19925;-76
2024/03/18 07:44:29;;;;;;;;;;;;;;;21.67;40.75;94715.63;10300806;28;19917;-77
2024/03/18 07:49:30;;;;;;;;;;;;;;;21.29;42.63;94711.31;10312967;28;19914;-78
2024/03/18 07:54:33;;;;;;;;;;;;;;;22.29;39.11;94699.81;10290633;28;19925;-78
2024/03/18 07:59:33;;;;;;;;;;;;;;;22.73;38.08;94690.84;10288049;28;19941;-76
2024/03/18 08:04:33;;;;;;;;;;;;;;;23.06;37.50;94692.44;10295229;28;19916;-77
2024/03/18 08:09:34;;;;;;;;;;;;;;;23.17;37.73;94679.81;10297913;28;19919;-76
2024/03/18 08:14:38;;;;;;;;;;;;;;;23.83;35.25;94677.38;10296255;28;20013;-75
2024/03/18 08:19:38;;;;;;;;;;;;;;;23.94;34.33;94672.13;10288053;28;20518;-75
2024/03/18 08:24:39;;;;;;;;;;;;;;;24.81;34.58;94665.53;10295981;28;19936;-76
2024/03/18 08:29:40;;;;;;;;;;;;;;;24.87;33.29;94658.59;10293808;28;20299;-78
2024/03/18 08:34:43;;;;;;;;;;;;;;;23.10;36.20;94659.66;10297457;28;19920;-78
2024/03/18 08:39:43;;;;;;;;;;;;;;;20.75;39.17;94665.84;10297760;28;20006;-79
2024/03/18 08:50:21;;;;;;;;;;;;;;;18.52;46.48;94659.13;10299805;28;20261;-76
2024/03/18 08:55:22;;;;;;;;;;;;;;;18.26;47.74;94662.72;10295721;28;19918;-76
2024/03/18 09:00:23;;;;;;;;;;;;;;;17.83;50.31;94660.81;10291406;28;20396;-77
2024/03/18 09:05:23;;;;;;;;;;;;;;;17.11;52.36;94651.34;10286227;28;20104;-77
2024/03/18 09:10:23;;;;;;;;;;;;;;;17.15;54.85;94644.16;10296047;28;19909;-76
2024/03/18 09:15:24;;;;;;;;;;;;;;;17.41;54.18;94641.50;10297122;28;20551;-76
2024/03/18 09:20:24;;;;;;;;;;;;;;;17.77;53.98;94640.38;10287960;28;21447;-76
2024/03/18 09:25:24;;;;;;;;;;;;;;;17.98;50.50;94637.03;10300240;28;19914;-75
2024/03/18 09:30:26;;;;;;;;;;;;;;;18.20;50.12;94625.94;10286463;28;19960;-75
2024/03/18 09:35:26;;;;;;;;;;;;;;;18.53;48.02;94614.47;10286394;28;20472;-75
2024/03/18 09:40:29;;;;;;;;;;;;;;;19.14;47.43;94607.91;10303291;28;20233;-76
2024/03/18 09:45:30;;;;;;;;;;;;;;;19.67;45.08;94596.63;10299903;28;19914;-76
2024/03/18 09:50:31;;;;;;;;;;;;;;;20.86;43.02;94576.88;10286677;28;19910;-77
2024/03/18 09:55:31;;;;;;;;;;;;;;;22.96;38.15;94564.16;10304659;28;19918;-76
2024/03/18 10:00:32;;;;;;;;;;;;;;;22.77;34.34;94556.69;10301838;28;19921;-75
2024/03/18 10:05:32;;;;;;;;;;;;;;;24.97;31.06;94545.25;10302075;28;19924;-77
2024/03/18 10:10:32;;;;;;;;;;;;;;;27.45;28.77;94532.44;10302575;28;19920;-76
2024/03/18 10:15:32;;;;;;;;;;;;;;;29.16;25.99;94524.00;10296877;28;21018;-76
2024/03/18 10:20:34;;;;;;;;;;;;;;;29.80;24.88;94525.78;10298181;28;19967;-76
2024/03/18 10:25:36;;;;;;;;;;;;;;;30.09;23.89;94506.28;10281543;28;20361;-76
2024/03/18 10:30:37;;;;;;;;;;;;;;;31.53;23.19;94504.28;10280026;28;19983;-76
2024/03/18 10:35:39;;;;;;;;;;;;;;;30.44;22.83;94490.63;10279470;28;19929;-77
2024/03/18 10:40:40;;;;;;;;;;;;;;;30.31;23.89;94483.97;10300954;28;20013;-77
2024/03/18 10:45:51;;;;;;;;;;;;;;;30.76;22.50;94484.03;10300810;28;19916;-76
2024/03/18 10:50:52;;;;;;;;;;;;;;;29.09;24.54;94466.69;10300329;28;20312;-77
2024/03/18 10:55:53;;;;;;;;;;;;;;;30.87;23.05;94453.41;10300503;28;19921;-76
2024/03/18 11:00:53;;;;;;;;;;;;;;;30.12;24.20;94450.03;10279621;28;19921;-76
2024/03/18 11:05:55;;;;;;;;;;;;;;;29.64;23.63;94445.19;10301551;28;20426;-77
2024/03/18 11:10:57;;;;;;;;;;;;;;;26.63;26.41;94449.94;10300384;28;20416;-75
2024/03/18 11:16:00;;;;;;;;;;;;;;;24.51;27.74;94449.13;10299708;28;19990;-77
2024/03/18 11:21:02;;;;;;;;;;;;;;;24.14;30.45;94438.75;10297713;28;20304;-75
2024/03/18 11:26:04;;;;;;;;;;;;;;;26.39;26.41;94419.06;10295946;28;20055;-76
2024/03/18 11:31:05;;;;;;;;;;;;;;;23.95;29.92;94410.22;10297333;28;20052;-75
2024/03/18 11:36:06;;;;;;;;;;;;;;;25.13;29.64;94406.78;10298209;28;20749;-76
2024/03/18 11:41:06;;;;;;;;;;;;;;;22.85;30.26;94411.25;10297001;28;20261;-75
2024/03/18 11:46:13;;;;;;;;;;;;;;;22.57;32.22;94405.97;10296912;28;19941;-75
2024/03/18 11:51:13;;;;;;;;;;;;;;;22.05;34.41;94399.69;10298172;28;20004;-76
2024/03/18 11:56:13;;;;;;;;;;;;;;;20.00;34.54;94383.88;10299088;28;19920;-76
2024/03/18 12:01:14;;;;;;;;;;;;;;;20.03;37.44;94390.59;10288122;28;20640;-75
2024/03/18 12:06:15;;;;;;;;;;;;;;;20.32;36.05;94378.63;10248161;28;19921;-75
2024/03/18 12:11:15;;;;;;;;;;;;;;;19.64;36.53;94377.25;10298860;28;19910;-76
2024/03/18 12:16:16;;;;;;;;;;;;;;;19.65;36.61;94376.13;10297977;28;20356;-77
2024/03/18 12:21:16;;;;;;;;;;;;;;;19.30;36.72;94360.97;10296053;28;20447;-75
2024/03/18 12:31:37;;;;;;;;;;;;;;;19.36;39.07;94347.91;10298868;28;19957;-75
2024/03/18 12:36:37;;;;;;;;;;;;;;;19.38;35.92;94350.31;10297309;28;20006;-75
2024/03/18 12:41:37;;;;;;;;;;;;;;;19.25;37.58;94342.09;10298078;28;19913;-76
2024/03/18 12:46:37;;;;;;;;;;;;;;;19.64;36.69;94333.63;10297139;28;19953;-75
2024/03/18 12:51:38;;;;;;;;;;;;;;;19.59;37.57;94323.75;10279176;28;20674;-76
2024/03/18 12:56:38;;;;;;;;;;;;;;;19.60;38.09;94330.00;10300541;28;20372;-76
2024/03/18 13:01:38;;;;;;;;;;;;;;;19.10;38.70;94319.06;10303971;28;19949;-76
2024/03/18 13:06:39;;;;;;;;;;;;;;;19.18;39.00;94316.56;10294611;28;19925;-76
2024/03/18 13:11:39;;;;;;;;;;;;;;;18.98;39.06;94316.31;10305139;28;19913;-76
2024/03/18 13:16:40;;;;;;;;;;;;;;;18.81;39.88;94319.16;10301127;28;19929;-76
2024/03/18 13:21:40;;;;;;;;;;;;;;;18.90;38.74;94303.56;10303700;28;19941;-77
2024/03/18 13:26:41;;;;;;;;;;;;;;;18.66;40.32;94310.50;10300851;28;19916;-75
2024/03/18 13:31:41;;;;;;;;;;;;;;;18.64;39.90;94304.59;10304122;28;19913;-76
2024/03/18 13:36:41;;;;;;;;;;;;;;;18.51;40.13;94305.69;10303523;28;19925;-75
2024/03/18 13:41:41;;;;;;;;;;;;;;;18.44;40.89;94308.94;10303788;28;20400;-76
2024/03/18 13:46:42;;;;;;;;;;;;;;;18.19;40.19;94306.09;10282894;28;19916;-75
2024/03/18 13:51:42;;;;;;;;;;;;;;;18.12;41.04;94305.03;10285316;28;20004;-75
2024/03/18 13:56:43;;;;;;;;;;;;;;;18.16;40.96;94293.16;10288092;28;19914;-76
2024/03/18 14:01:43;;;;;;;;;;;;;;;18.10;41.43;94289.06;10290514;28;19918;-75
2024/03/18 14:06:43;;;;;;;;;;;;;;;18.12;40.55;94284.06;10300991;28;19910;-75
2024/03/18 14:11:43;;;;;;;;;;;;;;;18.04;41.17;94279.50;10301336;28;20296;-75
2024/03/18 14:16:44;;;;;;;;;;;;;;;17.76;42.37;94278.06;10302170;28;19918;-75
2024/03/18 14:21:44;;;;;;;;;;;;;;;17.62;42.92;94279.44;10301124;28;20687;-75
2024/03/18 14:26:44;;;;;;;;;;;;;;;16.82;43.38;94278.94;10283510;28;19973;-75
2024/03/18 14:31:44;;;;;;;;;;;;;;;16.94;44.38;94274.78;10299177;28;20621;-75
2024/03/18 14:36:45;;;;;;;;;;;;;;;16.69;45.13;94267.19;10294968;28;20379;-92
2024/03/18 14:41:45;;;;;;;;;;;;;;;16.81;44.32;94252.16;10306583;28;19910;-90
2024/03/18 14:46:47;;;;;;;;;;;;;;;16.61;44.86;94259.06;10302748;28;20599;-86
2024/03/18 14:51:47;;;;;;;;;;;;;;;16.52;44.30;94259.88;10316796;28;19929;-76
2024/03/18 14:56:47;;;;;;;;;;;;;;;16.55;44.07;94247.59;10278326;28;19968;-76
2024/03/18 15:01:48;;;;;;;;;;;;;;;16.55;44.84;94256.53;10301755;28;19914;-74
2024/03/18 15:06:48;;;;;;;;;;;;;;;16.44;45.75;94257.97;10281244;28;20028;-76
2024/03/18 15:11:48;;;;;;;;;;;;;;;16.37;46.14;94254.97;10282256;28;19914;-77
2024/03/18 15:16:48;;;;;;;;;;;;;;;16.40;45.87;94265.97;10311277;28;19936;-75
2024/03/18 15:21:49;;;;;;;;;;;;;;;16.31;45.80;94269.78;10300303;28;19913;-78
2024/03/18 15:32:09;;;;;;;;;;;;;;;16.37;47.19;94260.41;10298279;28;19921;-77
2024/03/18 15:37:09;;;;;;;;;;;;;;;16.17;48.50;94275.38;10298999;28;19937;-76
2024/03/18 15:42:09;;;;;;;;;;;;;;;16.04;49.54;94269.03;10280812;28;19937;-76
2024/03/18 15:47:10;;;;;;;;;;;;;;;15.83;50.90;94266.94;10298199;28;19910;-75
2024/03/18 15:52:10;;;;;;;;;;;;;;;15.67;50.64;94263.06;10298320;28;20369;-77
2024/03/18 15:57:10;;;;;;;;;;;;;;;15.28;53.43;94273.66;10298797;28;20437;-77
2024/03/18 16:02:10;;;;;;;;;;;;;;;15.35;51.96;94273.22;10298525;28;19930;-76
2024/03/18 16:07:11;;;;;;;;;;;;;;;15.27;54.09;94277.47;10297922;28;20277;-75
2024/03/18 16:12:17;;;;;;;;;;;;;;;15.47;52.79;94278.00;10280777;28;20359;-76
2024/03/18 16:17:18;;;;;;;;;;;;;;;15.36;53.96;94274.78;10280619;28;19983;-76
2024/03/18 16:22:19;;;;;;;;;;;;;;;15.41;53.59;94282.78;10279588;28;20050;-77
2024/03/18 16:27:19;;;;;;;;;;;;;;;15.03;54.48;94286.00;10297472;28;20013;-76
2024/03/18 16:32:19;;;;;;;;;;;;;;;14.55;57.77;94276.66;10296244;28;20372;-76
2024/03/18 16:37:20;;;;;;;;;;;;;;;14.45;60.00;94291.22;10293409;28;19921;-78
2024/03/18 16:42:20;;;;;;;;;;;;;;;14.09;67.24;94299.38;10290816;28;20646;-76
2024/03/18 16:47:20;;;;;;;;;;;;;;;13.88;71.66;94299.06;10296547;28;19914;-76
2024/03/18 16:52:21;;;;;;;;;;;;;;;13.92;74.28;94302.75;10294327;28;19913;-78
2024/03/18 16:57:21;;;;;;;;;;;;;;;13.88;73.87;94307.94;10297223;28;19918;-77
2024/03/18 17:02:23;;;;;;;;;;;;;;;13.44;87.76;94304.84;10293548;28;19918;-78
2024/03/18 17:07:24;;;;;;;;;;;;;;;13.20;93.39;94305.03;10293710;28;20355;-76
2024/03/18 17:12:25;;;;;;;;;;;;;;;13.11;94.00;94302.22;10292606;28;19909;-77
2024/03/18 17:17:25;;;;;;;;;;;;;;;13.05;94.65;94299.94;10298235;28;19953;-78
2024/03/18 17:22:26;;;;;;;;;;;;;;;12.75;96.69;94310.97;10293854;28;19968;-76
2024/03/18 17:27:26;;;;;;;;;;;;;;;12.65;98.75;94309.25;10282278;28;19953;-74
2024/03/18 17:32:26;;;;;;;;;;;;;;;12.60;98.47;94317.44;10292552;28;20359;-73
2024/03/18 17:37:27;;;;;;;;;;;;;;;12.71;98.34;94322.66;10294576;28;20274;-75
2024/03/18 17:42:27;;;;;;;;;;;;;;;12.63;99.54;94326.84;10280991;28;19925;-75
2024/03/18 17:47:27;;;;;;;;;;;;;;;12.63;98.80;94324.94;10280698;28;20368;-74
2024/03/18 17:52:30;;;;;;;;;;;;;;;12.59;98.41;94329.31;10271266;28;20413;-75
2024/03/18 17:57:30;;;;;;;;;;;;;;;12.54;99.40;94328.59;10312841;28;20377;-74
2024/03/18 18:02:30;;;;;;;;;;;;;;;12.41;98.87;94322.09;10283754;28;19922;-76
2024/03/18 18:07:31;;;;;;;;;;;;;;;12.29;100.00;94325.22;10298905;28;20364;-77
2024/03/18 18:12:31;;;;;;;;;;;;;;;12.17;100.00;94328.38;10300574;28;20592;-75
2024/03/18 18:17:32;;;;;;;;;;;;;;;12.07;100.00;94342.00;10298911;28;19924;-77
2024/03/18 18:22:33;;;;;;;;;;;;;;;12.13;100.00;94328.16;10299318;28;20325;-74
2024/03/18 18:27:34;;;;;;;;;;;;;;;12.12;100.00;94339.22;10301887;28;19955;-74
2024/03/18 18:32:34;;;;;;;;;;;;;;;12.28;100.00;94340.59;10296966;28;19917;-78
2024/03/18 18:37:34;;;;;;;;;;;;;;;12.34;100.00;94338.63;10287027;28;20443;-77
2024/03/18 18:42:35;;;;;;;;;;;;;;;12.32;96.77;94340.78;10291812;28;20000;-77
2024/03/18 18:47:35;;;;;;;;;;;;;;;12.39;91.77;94337.72;10287417;28;19969;-75
2024/03/18 18:52:37;;;;;;;;;;;;;;;12.59;93.56;94337.41;10290247;28;19917;-80
2024/03/18 18:57:39;;;;;;;;;;;;;;;12.80;91.64;94343.25;10291768;28;20328;-80
2024/03/18 19:02:39;;;;;;;;;;;;;;;12.73;86.92;94339.34;10293684;28;19918;-79
2024/03/18 19:07:40;;;;;;;;;;;;;;;12.94;87.94;94342.47;10273328;28;20376;-78
2024/03/18 19:12:40;;;;;;;;;;;;;;;13.01;84.70;94337.50;10289266;28;19928;-82
2024/03/18 19:17:40;;;;;;;;;;;;;;;13.08;82.08;94331.72;10287308;28;20372;-76
2024/03/18 19:22:43;;;;;;;;;;;;;;;13.12;78.99;94341.59;10286542;28;19922;-77
2024/03/18 19:27:44;;;;;;;;;;;;;;;13.16;79.02;94341.81;10273106;28;20361;-78
2024/03/18 19:32:44;;;;;;;;;;;;;;;13.21;78.18;94347.09;10290978;28;20335;-79
2024/03/18 19:37:45;;;;;;;;;;;;;;;13.22;80.49;94334.41;10290117;28;19922;-79
2024/03/18 19:42:45;;;;;;;;;;;;;;;13.19;82.79;94343.13;10293776;28;19909;-79
2024/03/18 19:47:46;;;;;;;;;;;;;;;13.13;82.36;94345.91;10295335;28;20361;-79
2024/03/18 19:52:47;;;;;;;;;;;;;;;13.00;78.98;94343.97;10277164;28;20592;-79
2024/03/18 19:57:47;;;;;;;;;;;;;;;13.01;81.03;94350.19;10292527;28;19956;-78
2024/03/18 20:02:49;;;;;;;;;;;;;;;12.98;89.00;94349.66;10267177;28;20049;-80
2024/03/18 20:07:49;;;;;;;;;;;;;;;12.95;92.71;94352.19;10293281;28;20008;-80
2024/03/18 20:12:52;;;;;;;;;;;;;;;12.76;95.26;94357.63;10295223;28;20349;-78
2024/03/18 20:17:52;;;;;;;;;;;;;;;12.59;97.91;94355.47;10293859;28;20475;-76
2024/03/18 20:22:53;;;;;;;;;;;;;;;12.30;99.64;94359.16;10284069;28;19930;-78
2024/03/18 20:27:53;;;;;;;;;;;;;;;12.20;98.27;94357.44;10290829;28;20476;-78
2024/03/18 20:32:54;;;;;;;;;;;;;;;12.17;99.68;94349.13;10289099;28;19922;-78
2024/03/18 20:37:54;;;;;;;;;;;;;;;11.98;98.49;94346.44;10288495;28;19922;-79
2024/03/18 20:42:54;;;;;;;;;;;;;;;12.01;99.69;94343.94;10280229;28;20702;-79
2024/03/18 20:47:55;;;;;;;;;;;;;;;11.92;99.27;94340.31;10292578;28;19913;-78
2024/03/18 20:52:55;;;;;;;;;;;;;;;11.79;98.85;94337.25;10273017;28;19954;-78
2024/03/18 20:57:55;;;;;;;;;;;;;;;11.65;100.00;94347.09;10284369;28;20292;-78
2024/03/18 21:02:56;;;;;;;;;;;;;;;11.50;100.00;94347.31;10301962;28;19917;-78
2024/03/18 21:07:56;;;;;;;;;;;;;;;11.65;100.00;94335.53;10304016;28;19918;-81
2024/03/18 21:12:56;;;;;;;;;;;;;;;11.71;100.00;94340.56;10289670;28;20107;-80
2024/03/18 21:17:56;;;;;;;;;;;;;;;11.75;100.00;94344.28;10306992;28;19953;-79
2024/03/18 21:22:58;;;;;;;;;;;;;;;11.77;100.00;94347.47;10311450;28;19917;-79
2024/03/18 21:27:58;;;;;;;;;;;;;;;11.79;100.00;94329.16;10311287;28;19914;-80
2024/03/18 21:32:58;;;;;;;;;;;;;;;11.88;100.00;94334.69;10311424;28;20488;-79
2024/03/18 21:37:58;;;;;;;;;;;;;;;11.93;100.00;94331.13;10312306;28;20265;-78
2024/03/18 21:42:59;;;;;;;;;;;;;;;11.92;100.00;94338.41;10311888;28;19914;-80
2024/03/18 21:47:59;;;;;;;;;;;;;;;11.98;100.00;94341.06;10309072;28;20347;-81
2024/03/18 21:53:04;;;;;;;;;;;;;;;12.04;99.22;94338.00;10293021;28;19921;-79
2024/03/18 21:58:04;;;;;;;;;;;;;;;12.00;100.00;94333.47;10309943;28;20333;-80
2024/03/18 22:03:05;;;;;;;;;;;;;;;11.96;100.00;94338.66;10293678;28;19921;-79
2024/03/18 22:08:05;;;;;;;;;;;;;;;11.93;100.00;94331.94;10290090;28;19921;-79
2024/03/18 22:13:06;;;;;;;;;;;;;;;11.85;100.00;94337.19;10291979;28;19933;-79
2024/03/18 22:18:06;;;;;;;;;;;;;;;11.83;100.00;94328.56;10293788;28;19913;-81
2024/03/18 22:23:06;;;;;;;;;;;;;;;11.83;100.00;94321.28;10292010;28;19921;-80
2024/03/18 22:28:06;;;;;;;;;;;;;;;11.75;100.00;94313.88;10309084;28;19914;-82
2024/03/18 22:33:08;;;;;;;;;;;;;;;11.77;100.00;94314.38;10309765;28;19925;-80
2024/03/18 22:38:09;;;;;;;;;;;;;;;11.68;100.00;94311.56;10305955;28;19940;-80
2024/03/18 22:43:09;;;;;;;;;;;;;;;11.67;100.00;94317.22;10310358;28;19913;-80
2024/03/18 22:48:09;;;;;;;;;;;;;;;11.71;100.00;94310.19;10310627;28;20061;-81
2024/03/18 22:53:10;;;;;;;;;;;;;;;11.69;100.00;94307.75;10305943;28;20304;-81
2024/03/18 22:58:10;;;;;;;;;;;;;;;11.67;100.00;94312.63;10289381;28;20474;-80
2024/03/18 23:03:11;;;;;;;;;;;;;;;11.77;100.00;94307.09;10307968;28;20324;-81
2024/03/18 23:08:11;;;;;;;;;;;;;;;11.82;100.00;94305.44;10308600;28;19914;-80
2024/03/18 23:13:12;;;;;;;;;;;;;;;11.83;100.00;94307.03;10306137;28;19944;-80
2024/03/18 23:18:12;;;;;;;;;;;;;;;11.79;100.00;94313.00;10307089;28;20328;-80
2024/03/18 23:23:13;;;;;;;;;;;;;;;11.84;100.00;94308.66;10307280;28;19971;-79
2024/03/18 23:28:13;;;;;;;;;;;;;;;11.89;100.00;94311.25;10307071;28;19932;-79
2024/03/18 23:33:13;;;;;;;;;;;;;;;11.89;100.00;94298.59;10306795;28;19921;-77
2024/03/18 23:38:15;;;;;;;;;;;;;;;11.87;100.00;94299.97;10305258;28;19918;-80
2024/03/18 23:43:16;;;;;;;;;;;;;;;11.80;100.00;94303.84;10317485;28;19910;-79
2024/03/18 23:48:16;;;;;;;;;;;;;;;11.72;100.00;94299.13;10308925;28;20008;-79
2024/03/18 23:53:17;;;;;;;;;;;;;;;11.68;100.00;94294.59;10319920;28;19925;-78
2024/03/18 23:58:18;;;;;;;;;;;;;;;11.50;100.00;94293.47;10306156;28;19918;-81
